sensor_id;sensor_type;location;lat;lon;timestamp;P1;durP1;ratioP1;P2;durP2;ratioP2
69625;SDS011;56847;51.984;5.088;2023-12-14T00:00:26;14.18;;;9.65;;
69625;SDS011;56847;51.984;5.088;2023-12-14T00:02:53;14.85;;;10.85;;
69625;SDS011;56847;51.984;5.088;2023-12-14T00:05:20;12.82;;;8.70;;
69625;SDS011;56847;51.984;5.088;2023-12-14T00:07:47;16.38;;;10.38;;
69625;SDS011;56847;51.984;5.088;2023-12-14T00:10:14;13.80;;;8.43;;
69625;SDS011;56847;51.984;5.088;2023-12-14T00:12:42;18.70;;;11.50;;
69625;SDS011;56847;51.984;5.088;2023-12-14T00:15:10;16.42;;;11.70;;
69625;SDS011;56847;51.984;5.088;2023-12-14T00:17:37;17.02;;;11.18;;
69625;SDS011;56847;51.984;5.088;2023-12-14T00:20:04;21.65;;;12.32;;
69625;SDS011;56847;51.984;5.088;2023-12-14T00:22:32;20.10;;;11.87;;
69625;SDS011;56847;51.984;5.088;2023-12-14T00:24:59;17.27;;;10.75;;
69625;SDS011;56847;51.984;5.088;2023-12-14T00:27:26;18.50;;;11.93;;
69625;SDS011;56847;51.984;5.088;2023-12-14T00:29:53;16.83;;;11.52;;
69625;SDS011;56847;51.984;5.088;2023-12-14T00:32:20;16.42;;;11.93;;
69625;SDS011;56847;51.984;5.088;2023-12-14T00:34:47;14.47;;;10.83;;
69625;SDS011;56847;51.984;5.088;2023-12-14T00:37:15;16.70;;;11.07;;
69625;SDS011;56847;51.984;5.088;2023-12-14T00:39:42;15.10;;;10.65;;
69625;SDS011;56847;51.984;5.088;2023-12-14T00:42:10;15.10;;;10.82;;
69625;SDS011;56847;51.984;5.088;2023-12-14T00:44:38;17.58;;;12.57;;
69625;SDS011;56847;51.984;5.088;2023-12-14T00:47:05;18.63;;;12.03;;
69625;SDS011;56847;51.984;5.088;2023-12-14T00:49:32;15.45;;;11.15;;
69625;SDS011;56847;51.984;5.088;2023-12-14T00:51:59;17.92;;;11.15;;
69625;SDS011;56847;51.984;5.088;2023-12-14T00:54:26;14.30;;;11.05;;
69625;SDS011;56847;51.984;5.088;2023-12-14T00:56:53;16.92;;;11.48;;
69625;SDS011;56847;51.984;5.088;2023-12-14T00:59:20;13.07;;;10.87;;
69625;SDS011;56847;51.984;5.088;2023-12-14T01:01:47;16.42;;;11.52;;
69625;SDS011;56847;51.984;5.088;2023-12-14T01:04:14;14.15;;;11.05;;
69625;SDS011;56847;51.984;5.088;2023-12-14T01:06:41;15.73;;;10.40;;
69625;SDS011;56847;51.984;5.088;2023-12-14T01:09:08;14.55;;;10.57;;
69625;SDS011;56847;51.984;5.088;2023-12-14T01:11:35;11.97;;;8.90;;
69625;SDS011;56847;51.984;5.088;2023-12-14T01:14:02;13.63;;;10.18;;
69625;SDS011;56847;51.984;5.088;2023-12-14T01:16:29;15.30;;;11.23;;
69625;SDS011;56847;51.984;5.088;2023-12-14T01:18:56;13.13;;;10.10;;
69625;SDS011;56847;51.984;5.088;2023-12-14T01:21:24;15.10;;;11.05;;
69625;SDS011;56847;51.984;5.088;2023-12-14T01:23:51;16.70;;;10.77;;
69625;SDS011;56847;51.984;5.088;2023-12-14T01:26:18;14.65;;;10.52;;
69625;SDS011;56847;51.984;5.088;2023-12-14T01:28:48;16.45;;;11.23;;
69625;SDS011;56847;51.984;5.088;2023-12-14T01:31:16;13.88;;;10.95;;
69625;SDS011;56847;51.984;5.088;2023-12-14T01:33:49;18.17;;;11.95;;
69625;SDS011;56847;51.984;5.088;2023-12-14T01:36:23;15.53;;;11.03;;
69625;SDS011;56847;51.984;5.088;2023-12-14T01:38:51;16.05;;;10.45;;
69625;SDS011;56847;51.984;5.088;2023-12-14T01:41:19;13.70;;;11.00;;
69625;SDS011;56847;51.984;5.088;2023-12-14T01:43:45;14.30;;;11.00;;
69625;SDS011;56847;51.984;5.088;2023-12-14T01:46:16;16.55;;;11.50;;
69625;SDS011;56847;51.984;5.088;2023-12-14T01:48:43;13.70;;;10.03;;
69625;SDS011;56847;51.984;5.088;2023-12-14T01:51:10;14.13;;;10.77;;
69625;SDS011;56847;51.984;5.088;2023-12-14T01:53:37;15.65;;;11.27;;
69625;SDS011;56847;51.984;5.088;2023-12-14T01:56:04;16.33;;;10.68;;
69625;SDS011;56847;51.984;5.088;2023-12-14T01:58:32;14.80;;;11.25;;
69625;SDS011;56847;51.984;5.088;2023-12-14T02:03:32;15.45;;;9.63;;
69625;SDS011;56847;51.984;5.088;2023-12-14T02:05:59;15.73;;;10.68;;
69625;SDS011;56847;51.984;5.088;2023-12-14T02:08:28;15.30;;;11.60;;
69625;SDS011;56847;51.984;5.088;2023-12-14T02:10:55;14.75;;;10.88;;
69625;SDS011;56847;51.984;5.088;2023-12-14T02:13:22;15.30;;;11.17;;
69625;SDS011;56847;51.984;5.088;2023-12-14T02:15:49;16.17;;;10.63;;
69625;SDS011;56847;51.984;5.088;2023-12-14T02:18:16;15.95;;;11.27;;
69625;SDS011;56847;51.984;5.088;2023-12-14T02:20:43;14.70;;;10.20;;
69625;SDS011;56847;51.984;5.088;2023-12-14T02:23:10;13.95;;;10.73;;
69625;SDS011;56847;51.984;5.088;2023-12-14T02:25:37;15.57;;;10.63;;
69625;SDS011;56847;51.984;5.088;2023-12-14T02:28:04;15.60;;;10.60;;
69625;SDS011;56847;51.984;5.088;2023-12-14T02:30:31;14.23;;;10.00;;
69625;SDS011;56847;51.984;5.088;2023-12-14T02:32:58;15.32;;;11.13;;
69625;SDS011;56847;51.984;5.088;2023-12-14T02:35:25;16.27;;;12.38;;
69625;SDS011;56847;51.984;5.088;2023-12-14T02:37:53;13.53;;;10.70;;
69625;SDS011;56847;51.984;5.088;2023-12-14T02:40:20;15.27;;;10.68;;
69625;SDS011;56847;51.984;5.088;2023-12-14T02:42:47;15.52;;;11.23;;
69625;SDS011;56847;51.984;5.088;2023-12-14T02:45:16;14.57;;;10.98;;
69625;SDS011;56847;51.984;5.088;2023-12-14T02:47:43;17.67;;;11.18;;
69625;SDS011;56847;51.984;5.088;2023-12-14T02:50:10;14.73;;;11.03;;
69625;SDS011;56847;51.984;5.088;2023-12-14T02:52:38;18.98;;;12.05;;
69625;SDS011;56847;51.984;5.088;2023-12-14T02:55:05;20.35;;;12.13;;
69625;SDS011;56847;51.984;5.088;2023-12-14T02:57:32;16.88;;;11.18;;
69625;SDS011;56847;51.984;5.088;2023-12-14T03:00:00;22.63;;;12.55;;
69625;SDS011;56847;51.984;5.088;2023-12-14T03:02:29;21.73;;;12.80;;
69625;SDS011;56847;51.984;5.088;2023-12-14T03:04:58;21.70;;;12.52;;
69625;SDS011;56847;51.984;5.088;2023-12-14T03:07:25;20.65;;;13.52;;
69625;SDS011;56847;51.984;5.088;2023-12-14T03:09:52;21.13;;;11.98;;
69625;SDS011;56847;51.984;5.088;2023-12-14T03:12:19;20.95;;;13.18;;
69625;SDS011;56847;51.984;5.088;2023-12-14T03:14:46;19.43;;;11.50;;
69625;SDS011;56847;51.984;5.088;2023-12-14T03:17:13;21.45;;;11.75;;
69625;SDS011;56847;51.984;5.088;2023-12-14T03:19:40;18.83;;;12.27;;
69625;SDS011;56847;51.984;5.088;2023-12-14T03:22:08;20.38;;;11.48;;
69625;SDS011;56847;51.984;5.088;2023-12-14T03:24:35;19.30;;;12.75;;
69625;SDS011;56847;51.984;5.088;2023-12-14T03:27:03;21.80;;;12.03;;
69625;SDS011;56847;51.984;5.088;2023-12-14T03:29:30;17.13;;;10.85;;
69625;SDS011;56847;51.984;5.088;2023-12-14T03:31:57;21.48;;;12.32;;
69625;SDS011;56847;51.984;5.088;2023-12-14T03:34:25;16.35;;;9.98;;
69625;SDS011;56847;51.984;5.088;2023-12-14T03:36:54;24.10;;;12.00;;
69625;SDS011;56847;51.984;5.088;2023-12-14T03:39:21;18.07;;;11.63;;
69625;SDS011;56847;51.984;5.088;2023-12-14T03:41:48;20.15;;;12.23;;
69625;SDS011;56847;51.984;5.088;2023-12-14T03:44:15;19.80;;;10.80;;
69625;SDS011;56847;51.984;5.088;2023-12-14T03:46:42;23.70;;;11.23;;
69625;SDS011;56847;51.984;5.088;2023-12-14T03:49:09;19.08;;;11.52;;
69625;SDS011;56847;51.984;5.088;2023-12-14T03:51:36;17.57;;;9.77;;
69625;SDS011;56847;51.984;5.088;2023-12-14T03:54:03;19.23;;;12.48;;
69625;SDS011;56847;51.984;5.088;2023-12-14T03:56:30;24.73;;;13.27;;
69625;SDS011;56847;51.984;5.088;2023-12-14T03:58:57;25.30;;;11.50;;
69625;SDS011;56847;51.984;5.088;2023-12-14T04:01:24;20.80;;;12.20;;
69625;SDS011;56847;51.984;5.088;2023-12-14T04:03:51;21.63;;;11.67;;
69625;SDS011;56847;51.984;5.088;2023-12-14T04:06:21;26.70;;;12.82;;
69625;SDS011;56847;51.984;5.088;2023-12-14T04:08:48;19.92;;;12.43;;
69625;SDS011;56847;51.984;5.088;2023-12-14T04:11:15;23.08;;;12.38;;
69625;SDS011;56847;51.984;5.088;2023-12-14T04:13:42;25.20;;;13.35;;
69625;SDS011;56847;51.984;5.088;2023-12-14T04:16:09;25.30;;;11.77;;
69625;SDS011;56847;51.984;5.088;2023-12-14T04:18:36;22.30;;;11.55;;
69625;SDS011;56847;51.984;5.088;2023-12-14T04:21:04;24.23;;;12.38;;
69625;SDS011;56847;51.984;5.088;2023-12-14T04:23:31;20.90;;;10.82;;
69625;SDS011;56847;51.984;5.088;2023-12-14T04:25:58;19.85;;;11.18;;
69625;SDS011;56847;51.984;5.088;2023-12-14T04:28:28;18.13;;;9.60;;
69625;SDS011;56847;51.984;5.088;2023-12-14T04:30:56;19.15;;;10.20;;
69625;SDS011;56847;51.984;5.088;2023-12-14T04:33:23;22.17;;;11.70;;
69625;SDS011;56847;51.984;5.088;2023-12-14T04:35:50;19.63;;;10.20;;
69625;SDS011;56847;51.984;5.088;2023-12-14T04:38:17;23.30;;;10.90;;
69625;SDS011;56847;51.984;5.088;2023-12-14T04:40:51;18.30;;;9.90;;
69625;SDS011;56847;51.984;5.088;2023-12-14T04:43:25;20.70;;;9.50;;
69625;SDS011;56847;51.984;5.088;2023-12-14T04:45:57;18.67;;;9.23;;
69625;SDS011;56847;51.984;5.088;2023-12-14T04:48:24;21.55;;;10.10;;
69625;SDS011;56847;51.984;5.088;2023-12-14T04:50:51;17.40;;;8.88;;
69625;SDS011;56847;51.984;5.088;2023-12-14T04:53:18;15.93;;;9.23;;
69625;SDS011;56847;51.984;5.088;2023-12-14T04:55:45;15.98;;;8.90;;
69625;SDS011;56847;51.984;5.088;2023-12-14T04:58:12;15.95;;;8.85;;
69625;SDS011;56847;51.984;5.088;2023-12-14T05:00:39;16.70;;;7.82;;
69625;SDS011;56847;51.984;5.088;2023-12-14T05:03:07;16.90;;;8.55;;
69625;SDS011;56847;51.984;5.088;2023-12-14T05:05:34;11.07;;;7.53;;
69625;SDS011;56847;51.984;5.088;2023-12-14T05:08:01;13.95;;;7.78;;
69625;SDS011;56847;51.984;5.088;2023-12-14T05:10:28;16.42;;;8.48;;
69625;SDS011;56847;51.984;5.088;2023-12-14T05:12:54;11.32;;;6.63;;
69625;SDS011;56847;51.984;5.088;2023-12-14T05:15:21;13.25;;;7.05;;
69625;SDS011;56847;51.984;5.088;2023-12-14T05:17:48;15.03;;;8.33;;
69625;SDS011;56847;51.984;5.088;2023-12-14T05:20:15;12.13;;;7.85;;
69625;SDS011;56847;51.984;5.088;2023-12-14T05:22:42;11.95;;;7.75;;
69625;SDS011;56847;51.984;5.088;2023-12-14T05:25:09;10.70;;;7.35;;
69625;SDS011;56847;51.984;5.088;2023-12-14T05:27:36;13.88;;;7.75;;
69625;SDS011;56847;51.984;5.088;2023-12-14T05:30:04;13.17;;;7.57;;
69625;SDS011;56847;51.984;5.088;2023-12-14T05:32:31;16.00;;;8.40;;
69625;SDS011;56847;51.984;5.088;2023-12-14T05:35:02;12.45;;;7.65;;
69625;SDS011;56847;51.984;5.088;2023-12-14T05:37:29;17.58;;;8.65;;
69625;SDS011;56847;51.984;5.088;2023-12-14T05:40:00;12.30;;;8.68;;
69625;SDS011;56847;51.984;5.088;2023-12-14T05:42:27;11.70;;;8.13;;
69625;SDS011;56847;51.984;5.088;2023-12-14T05:44:54;14.27;;;8.02;;
69625;SDS011;56847;51.984;5.088;2023-12-14T05:47:21;13.32;;;9.10;;
69625;SDS011;56847;51.984;5.088;2023-12-14T05:49:49;14.35;;;8.35;;
69625;SDS011;56847;51.984;5.088;2023-12-14T05:52:16;14.63;;;9.00;;
69625;SDS011;56847;51.984;5.088;2023-12-14T05:54:44;11.30;;;8.20;;
69625;SDS011;56847;51.984;5.088;2023-12-14T05:57:11;13.13;;;8.18;;
69625;SDS011;56847;51.984;5.088;2023-12-14T05:59:39;15.63;;;8.95;;
69625;SDS011;56847;51.984;5.088;2023-12-14T06:02:06;12.25;;;8.30;;
69625;SDS011;56847;51.984;5.088;2023-12-14T06:04:34;17.40;;;8.90;;
69625;SDS011;56847;51.984;5.088;2023-12-14T06:07:01;13.73;;;7.60;;
69625;SDS011;56847;51.984;5.088;2023-12-14T06:09:28;13.07;;;7.72;;
69625;SDS011;56847;51.984;5.088;2023-12-14T06:12:03;13.35;;;8.50;;
69625;SDS011;56847;51.984;5.088;2023-12-14T06:14:31;11.73;;;7.88;;
69625;SDS011;56847;51.984;5.088;2023-12-14T06:17:00;12.02;;;8.25;;
69625;SDS011;56847;51.984;5.088;2023-12-14T06:19:38;16.40;;;8.10;;
69625;SDS011;56847;51.984;5.088;2023-12-14T06:22:06;16.20;;;8.43;;
69625;SDS011;56847;51.984;5.088;2023-12-14T06:24:32;13.75;;;8.30;;
69625;SDS011;56847;51.984;5.088;2023-12-14T06:26:59;12.88;;;7.78;;
69625;SDS011;56847;51.984;5.088;2023-12-14T06:29:27;12.90;;;8.02;;
69625;SDS011;56847;51.984;5.088;2023-12-14T06:31:54;9.83;;;6.97;;
69625;SDS011;56847;51.984;5.088;2023-12-14T06:34:21;11.38;;;6.93;;
69625;SDS011;56847;51.984;5.088;2023-12-14T06:36:49;9.13;;;6.95;;
69625;SDS011;56847;51.984;5.088;2023-12-14T06:39:15;8.10;;;6.45;;
69625;SDS011;56847;51.984;5.088;2023-12-14T06:41:46;9.07;;;6.20;;
69625;SDS011;56847;51.984;5.088;2023-12-14T06:44:12;7.93;;;5.97;;
69625;SDS011;56847;51.984;5.088;2023-12-14T06:46:40;7.10;;;6.18;;
69625;SDS011;56847;51.984;5.088;2023-12-14T06:49:13;10.88;;;6.53;;
69625;SDS011;56847;51.984;5.088;2023-12-14T06:51:44;12.18;;;6.97;;
69625;SDS011;56847;51.984;5.088;2023-12-14T06:54:14;12.32;;;6.75;;
69625;SDS011;56847;51.984;5.088;2023-12-14T06:56:41;9.67;;;6.70;;
69625;SDS011;56847;51.984;5.088;2023-12-14T06:59:08;11.20;;;7.78;;
69625;SDS011;56847;51.984;5.088;2023-12-14T07:01:35;13.50;;;8.55;;
69625;SDS011;56847;51.984;5.088;2023-12-14T07:04:05;12.52;;;7.40;;
69625;SDS011;56847;51.984;5.088;2023-12-14T07:06:34;14.38;;;8.25;;
69625;SDS011;56847;51.984;5.088;2023-12-14T07:09:02;10.80;;;8.53;;
69625;SDS011;56847;51.984;5.088;2023-12-14T07:11:31;13.05;;;8.02;;
69625;SDS011;56847;51.984;5.088;2023-12-14T07:14:01;12.35;;;8.50;;
69625;SDS011;56847;51.984;5.088;2023-12-14T07:16:28;12.98;;;8.15;;
69625;SDS011;56847;51.984;5.088;2023-12-14T07:18:55;12.27;;;8.23;;
69625;SDS011;56847;51.984;5.088;2023-12-14T07:21:22;9.73;;;7.40;;
69625;SDS011;56847;51.984;5.088;2023-12-14T07:23:49;12.52;;;7.55;;
69625;SDS011;56847;51.984;5.088;2023-12-14T07:26:15;16.98;;;8.30;;
69625;SDS011;56847;51.984;5.088;2023-12-14T07:28:42;12.90;;;7.60;;
69625;SDS011;56847;51.984;5.088;2023-12-14T07:31:09;10.27;;;7.05;;
69625;SDS011;56847;51.984;5.088;2023-12-14T07:33:36;10.43;;;7.33;;
69625;SDS011;56847;51.984;5.088;2023-12-14T07:36:04;10.82;;;6.88;;
69625;SDS011;56847;51.984;5.088;2023-12-14T07:38:32;11.13;;;7.70;;
69625;SDS011;56847;51.984;5.088;2023-12-14T07:40:59;9.38;;;6.32;;
69625;SDS011;56847;51.984;5.088;2023-12-14T07:43:26;11.43;;;6.55;;
69625;SDS011;56847;51.984;5.088;2023-12-14T07:45:53;9.63;;;7.30;;
69625;SDS011;56847;51.984;5.088;2023-12-14T07:48:20;10.02;;;6.68;;
69625;SDS011;56847;51.984;5.088;2023-12-14T07:50:47;9.10;;;7.53;;
69625;SDS011;56847;51.984;5.088;2023-12-14T07:53:14;10.63;;;7.32;;
69625;SDS011;56847;51.984;5.088;2023-12-14T07:55:41;13.15;;;7.30;;
69625;SDS011;56847;51.984;5.088;2023-12-14T07:58:08;9.23;;;7.37;;
69625;SDS011;56847;51.984;5.088;2023-12-14T08:00:35;8.63;;;6.60;;
69625;SDS011;56847;51.984;5.088;2023-12-14T08:03:02;10.15;;;8.82;;
69625;SDS011;56847;51.984;5.088;2023-12-14T08:05:29;10.20;;;7.97;;
69625;SDS011;56847;51.984;5.088;2023-12-14T08:07:57;8.75;;;6.90;;
69625;SDS011;56847;51.984;5.088;2023-12-14T08:10:23;14.27;;;7.47;;
69625;SDS011;56847;51.984;5.088;2023-12-14T08:12:50;12.10;;;8.35;;
69625;SDS011;56847;51.984;5.088;2023-12-14T08:15:18;9.48;;;7.20;;
69625;SDS011;56847;51.984;5.088;2023-12-14T08:17:45;9.02;;;6.72;;
69625;SDS011;56847;51.984;5.088;2023-12-14T08:20:14;12.52;;;8.18;;
69625;SDS011;56847;51.984;5.088;2023-12-14T08:22:41;11.63;;;8.30;;
69625;SDS011;56847;51.984;5.088;2023-12-14T08:25:12;10.63;;;7.22;;
69625;SDS011;56847;51.984;5.088;2023-12-14T08:27:41;8.10;;;7.30;;
69625;SDS011;56847;51.984;5.088;2023-12-14T08:30:10;8.82;;;7.63;;
69625;SDS011;56847;51.984;5.088;2023-12-14T08:32:37;9.73;;;7.43;;
69625;SDS011;56847;51.984;5.088;2023-12-14T08:35:06;10.67;;;6.97;;
69625;SDS011;56847;51.984;5.088;2023-12-14T08:37:36;8.27;;;6.57;;
69625;SDS011;56847;51.984;5.088;2023-12-14T08:40:04;8.15;;;7.05;;
69625;SDS011;56847;51.984;5.088;2023-12-14T08:42:32;9.73;;;6.97;;
69625;SDS011;56847;51.984;5.088;2023-12-14T08:45:00;13.25;;;7.65;;
69625;SDS011;56847;51.984;5.088;2023-12-14T08:47:27;8.97;;;7.80;;
69625;SDS011;56847;51.984;5.088;2023-12-14T08:49:56;10.52;;;7.82;;
69625;SDS011;56847;51.984;5.088;2023-12-14T08:52:24;10.43;;;7.65;;
69625;SDS011;56847;51.984;5.088;2023-12-14T08:54:51;11.65;;;8.93;;
69625;SDS011;56847;51.984;5.088;2023-12-14T08:57:17;10.48;;;7.95;;
69625;SDS011;56847;51.984;5.088;2023-12-14T08:59:44;8.83;;;7.40;;
69625;SDS011;56847;51.984;5.088;2023-12-14T09:02:11;10.23;;;7.85;;
69625;SDS011;56847;51.984;5.088;2023-12-14T09:04:38;9.88;;;8.50;;
69625;SDS011;56847;51.984;5.088;2023-12-14T09:07:06;10.60;;;8.40;;
69625;SDS011;56847;51.984;5.088;2023-12-14T09:09:33;8.23;;;7.00;;
69625;SDS011;56847;51.984;5.088;2023-12-14T09:12:00;7.37;;;6.30;;
69625;SDS011;56847;51.984;5.088;2023-12-14T09:14:27;9.18;;;6.97;;
69625;SDS011;56847;51.984;5.088;2023-12-14T09:16:54;8.93;;;7.40;;
69625;SDS011;56847;51.984;5.088;2023-12-14T09:19:21;10.00;;;6.93;;
69625;SDS011;56847;51.984;5.088;2023-12-14T09:21:48;8.80;;;6.97;;
69625;SDS011;56847;51.984;5.088;2023-12-14T09:24:15;6.53;;;5.60;;
69625;SDS011;56847;51.984;5.088;2023-12-14T09:26:42;9.82;;;7.07;;
69625;SDS011;56847;51.984;5.088;2023-12-14T09:29:13;10.57;;;7.18;;
69625;SDS011;56847;51.984;5.088;2023-12-14T09:31:42;8.98;;;7.30;;
69625;SDS011;56847;51.984;5.088;2023-12-14T09:34:13;8.82;;;7.40;;
69625;SDS011;56847;51.984;5.088;2023-12-14T09:36:40;10.37;;;6.80;;
69625;SDS011;56847;51.984;5.088;2023-12-14T09:39:07;8.02;;;6.78;;
69625;SDS011;56847;51.984;5.088;2023-12-14T09:41:41;9.52;;;7.93;;
69625;SDS011;56847;51.984;5.088;2023-12-14T09:44:08;9.00;;;5.50;;
69625;SDS011;56847;51.984;5.088;2023-12-14T09:46:38;9.73;;;7.30;;
69625;SDS011;56847;51.984;5.088;2023-12-14T09:49:08;9.47;;;5.93;;
69625;SDS011;56847;51.984;5.088;2023-12-14T09:51:39;9.00;;;6.25;;
69625;SDS011;56847;51.984;5.088;2023-12-14T09:54:07;10.45;;;6.88;;
69625;SDS011;56847;51.984;5.088;2023-12-14T09:56:34;8.82;;;6.50;;
69625;SDS011;56847;51.984;5.088;2023-12-14T09:59:14;9.13;;;7.18;;
69625;SDS011;56847;51.984;5.088;2023-12-14T10:01:42;9.03;;;6.37;;
69625;SDS011;56847;51.984;5.088;2023-12-14T10:04:15;7.32;;;6.18;;
69625;SDS011;56847;51.984;5.088;2023-12-14T10:06:44;9.73;;;6.28;;
69625;SDS011;56847;51.984;5.088;2023-12-14T10:09:13;9.02;;;6.13;;
69625;SDS011;56847;51.984;5.088;2023-12-14T10:11:42;7.75;;;6.50;;
69625;SDS011;56847;51.984;5.088;2023-12-14T10:14:19;7.50;;;5.80;;
69625;SDS011;56847;51.984;5.088;2023-12-14T10:16:49;8.02;;;7.22;;
69625;SDS011;56847;51.984;5.088;2023-12-14T10:19:18;9.82;;;7.97;;
69625;SDS011;56847;51.984;5.088;2023-12-14T10:21:46;26.90;;;7.22;;
69625;SDS011;56847;51.984;5.088;2023-12-14T10:24:14;11.48;;;7.35;;
69625;SDS011;56847;51.984;5.088;2023-12-14T10:26:46;12.07;;;7.03;;
69625;SDS011;56847;51.984;5.088;2023-12-14T10:29:14;7.82;;;6.53;;
69625;SDS011;56847;51.984;5.088;2023-12-14T10:31:42;9.70;;;6.78;;
69625;SDS011;56847;51.984;5.088;2023-12-14T10:34:10;11.15;;;7.10;;
69625;SDS011;56847;51.984;5.088;2023-12-14T10:36:41;8.30;;;7.10;;
69625;SDS011;56847;51.984;5.088;2023-12-14T10:39:13;8.30;;;6.83;;
69625;SDS011;56847;51.984;5.088;2023-12-14T10:41:46;9.30;;;7.20;;
69625;SDS011;56847;51.984;5.088;2023-12-14T10:44:26;9.93;;;7.07;;
69625;SDS011;56847;51.984;5.088;2023-12-14T10:47:17;8.88;;;5.68;;
69625;SDS011;56847;51.984;5.088;2023-12-14T10:49:49;9.20;;;6.85;;
69625;SDS011;56847;51.984;5.088;2023-12-14T10:52:18;7.57;;;6.77;;
69625;SDS011;56847;51.984;5.088;2023-12-14T10:54:46;10.13;;;6.20;;
69625;SDS011;56847;51.984;5.088;2023-12-14T10:57:19;10.60;;;6.88;;
69625;SDS011;56847;51.984;5.088;2023-12-14T10:59:48;8.00;;;6.93;;
69625;SDS011;56847;51.984;5.088;2023-12-14T11:02:16;10.98;;;8.27;;
69625;SDS011;56847;51.984;5.088;2023-12-14T11:04:59;12.60;;;8.03;;
69625;SDS011;56847;51.984;5.088;2023-12-14T11:07:45;7.68;;;6.53;;
69625;SDS011;56847;51.984;5.088;2023-12-14T11:10:19;8.55;;;6.43;;
69625;SDS011;56847;51.984;5.088;2023-12-14T11:12:56;8.50;;;6.43;;
69625;SDS011;56847;51.984;5.088;2023-12-14T11:15:35;12.23;;;7.30;;
69625;SDS011;56847;51.984;5.088;2023-12-14T11:25:53;8.52;;;6.93;;
69625;SDS011;56847;51.984;5.088;2023-12-14T11:28:26;10.52;;;8.30;;
69625;SDS011;56847;51.984;5.088;2023-12-14T11:30:55;13.23;;;9.37;;
69625;SDS011;56847;51.984;5.088;2023-12-14T11:33:23;8.90;;;7.22;;
69625;SDS011;56847;51.984;5.088;2023-12-14T11:35:51;9.25;;;7.20;;
69625;SDS011;56847;51.984;5.088;2023-12-14T11:38:21;8.10;;;6.47;;
69625;SDS011;56847;51.984;5.088;2023-12-14T11:40:51;11.98;;;7.53;;
69625;SDS011;56847;51.984;5.088;2023-12-14T11:43:18;9.97;;;7.00;;
69625;SDS011;56847;51.984;5.088;2023-12-14T11:45:50;7.88;;;6.47;;
69625;SDS011;56847;51.984;5.088;2023-12-14T11:48:18;9.02;;;7.28;;
69625;SDS011;56847;51.984;5.088;2023-12-14T11:50:47;12.30;;;7.88;;
69625;SDS011;56847;51.984;5.088;2023-12-14T11:53:14;10.95;;;8.00;;
69625;SDS011;56847;51.984;5.088;2023-12-14T11:55:42;11.30;;;7.53;;
69625;SDS011;56847;51.984;5.088;2023-12-14T11:58:11;9.68;;;7.78;;
69625;SDS011;56847;51.984;5.088;2023-12-14T12:00:43;11.20;;;8.55;;
69625;SDS011;56847;51.984;5.088;2023-12-14T12:03:17;10.57;;;8.38;;
69625;SDS011;56847;51.984;5.088;2023-12-14T12:05:47;8.77;;;7.88;;
69625;SDS011;56847;51.984;5.088;2023-12-14T12:08:15;9.57;;;7.17;;
69625;SDS011;56847;51.984;5.088;2023-12-14T12:10:46;9.50;;;7.50;;
69625;SDS011;56847;51.984;5.088;2023-12-14T12:13:19;11.00;;;8.18;;
69625;SDS011;56847;51.984;5.088;2023-12-14T12:15:47;11.07;;;7.80;;
69625;SDS011;56847;51.984;5.088;2023-12-14T12:18:17;13.35;;;8.50;;
69625;SDS011;56847;51.984;5.088;2023-12-14T12:20:45;12.40;;;7.80;;
69625;SDS011;56847;51.984;5.088;2023-12-14T12:23:13;12.60;;;8.52;;
69625;SDS011;56847;51.984;5.088;2023-12-14T12:25:40;13.05;;;8.65;;
69625;SDS011;56847;51.984;5.088;2023-12-14T12:28:07;12.02;;;9.40;;
69625;SDS011;56847;51.984;5.088;2023-12-14T12:30:34;12.70;;;9.13;;
69625;SDS011;56847;51.984;5.088;2023-12-14T12:33:06;13.07;;;9.13;;
69625;SDS011;56847;51.984;5.088;2023-12-14T12:35:34;11.45;;;9.32;;
69625;SDS011;56847;51.984;5.088;2023-12-14T12:38:01;16.20;;;10.05;;
69625;SDS011;56847;51.984;5.088;2023-12-14T12:40:28;10.18;;;7.93;;
69625;SDS011;56847;51.984;5.088;2023-12-14T12:42:58;11.35;;;9.35;;
69625;SDS011;56847;51.984;5.088;2023-12-14T12:45:28;14.47;;;8.50;;
69625;SDS011;56847;51.984;5.088;2023-12-14T12:48:08;10.65;;;8.80;;
69625;SDS011;56847;51.984;5.088;2023-12-14T12:50:39;12.75;;;9.15;;
69625;SDS011;56847;51.984;5.088;2023-12-14T12:53:21;14.07;;;9.85;;
69625;SDS011;56847;51.984;5.088;2023-12-14T12:55:48;11.25;;;9.10;;
69625;SDS011;56847;51.984;5.088;2023-12-14T12:58:23;13.57;;;9.43;;
69625;SDS011;56847;51.984;5.088;2023-12-14T13:00:51;13.68;;;8.70;;
69625;SDS011;56847;51.984;5.088;2023-12-14T13:03:22;13.60;;;9.70;;
69625;SDS011;56847;51.984;5.088;2023-12-14T13:05:52;11.20;;;9.57;;
69625;SDS011;56847;51.984;5.088;2023-12-14T13:08:20;12.82;;;9.98;;
69625;SDS011;56847;51.984;5.088;2023-12-14T13:10:49;10.83;;;8.13;;
69625;SDS011;56847;51.984;5.088;2023-12-14T13:13:21;10.93;;;8.63;;
69625;SDS011;56847;51.984;5.088;2023-12-14T13:15:48;11.23;;;8.45;;
69625;SDS011;56847;51.984;5.088;2023-12-14T13:18:16;13.40;;;9.13;;
69625;SDS011;56847;51.984;5.088;2023-12-14T13:20:51;12.38;;;10.07;;
69625;SDS011;56847;51.984;5.088;2023-12-14T13:23:23;16.23;;;8.80;;
69625;SDS011;56847;51.984;5.088;2023-12-14T13:25:51;12.20;;;7.93;;
69625;SDS011;56847;51.984;5.088;2023-12-14T13:28:28;12.35;;;8.65;;
69625;SDS011;56847;51.984;5.088;2023-12-14T13:30:56;14.45;;;8.60;;
69625;SDS011;56847;51.984;5.088;2023-12-14T13:33:24;13.98;;;9.75;;
69625;SDS011;56847;51.984;5.088;2023-12-14T13:35:54;15.10;;;9.27;;
69625;SDS011;56847;51.984;5.088;2023-12-14T13:38:21;12.82;;;9.32;;
69625;SDS011;56847;51.984;5.088;2023-12-14T13:40:48;15.00;;;9.80;;
69625;SDS011;56847;51.984;5.088;2023-12-14T13:43:16;13.15;;;10.30;;
69625;SDS011;56847;51.984;5.088;2023-12-14T13:45:43;11.43;;;9.15;;
69625;SDS011;56847;51.984;5.088;2023-12-14T13:48:10;16.10;;;8.83;;
69625;SDS011;56847;51.984;5.088;2023-12-14T13:50:37;10.77;;;8.57;;
69625;SDS011;56847;51.984;5.088;2023-12-14T13:53:04;15.02;;;8.75;;
69625;SDS011;56847;51.984;5.088;2023-12-14T13:55:31;13.07;;;8.02;;
69625;SDS011;56847;51.984;5.088;2023-12-14T13:57:58;13.30;;;9.02;;
69625;SDS011;56847;51.984;5.088;2023-12-14T14:00:27;14.40;;;8.70;;
69625;SDS011;56847;51.984;5.088;2023-12-14T14:02:54;12.13;;;9.10;;
69625;SDS011;56847;51.984;5.088;2023-12-14T14:05:21;12.32;;;9.05;;
69625;SDS011;56847;51.984;5.088;2023-12-14T14:07:48;11.05;;;8.73;;
69625;SDS011;56847;51.984;5.088;2023-12-14T14:10:15;15.80;;;9.70;;
69625;SDS011;56847;51.984;5.088;2023-12-14T14:12:43;15.53;;;10.40;;
69625;SDS011;56847;51.984;5.088;2023-12-14T14:15:10;21.27;;;10.23;;
69625;SDS011;56847;51.984;5.088;2023-12-14T14:17:36;15.15;;;10.18;;
69625;SDS011;56847;51.984;5.088;2023-12-14T14:20:04;14.68;;;9.63;;
69625;SDS011;56847;51.984;5.088;2023-12-14T14:22:31;13.65;;;9.68;;
69625;SDS011;56847;51.984;5.088;2023-12-14T14:25:00;18.90;;;8.93;;
69625;SDS011;56847;51.984;5.088;2023-12-14T14:27:27;21.42;;;9.60;;
69625;SDS011;56847;51.984;5.088;2023-12-14T14:29:53;17.83;;;10.88;;
69625;SDS011;56847;51.984;5.088;2023-12-14T14:32:22;17.40;;;10.82;;
69625;SDS011;56847;51.984;5.088;2023-12-14T14:34:49;15.20;;;10.90;;
69625;SDS011;56847;51.984;5.088;2023-12-14T14:37:17;15.83;;;9.60;;
69625;SDS011;56847;51.984;5.088;2023-12-14T14:39:44;16.52;;;9.77;;
69625;SDS011;56847;51.984;5.088;2023-12-14T14:42:11;19.75;;;10.32;;
69625;SDS011;56847;51.984;5.088;2023-12-14T14:44:43;19.98;;;10.90;;
69625;SDS011;56847;51.984;5.088;2023-12-14T14:47:14;19.40;;;11.98;;
69625;SDS011;56847;51.984;5.088;2023-12-14T14:49:41;18.43;;;11.53;;